createdAt,value
2022-11-12T00:00:45.479Z,21.43
2022-11-12T00:03:07.426Z,19.40
2022-11-12T00:05:28.984Z,20.87
2022-11-12T00:07:50.418Z,20.13
2022-11-12T00:10:11.835Z,18.83
2022-11-12T00:12:33.310Z,21.00
2022-11-12T00:14:56.023Z,19.17
2022-11-12T00:17:17.281Z,19.20
2022-11-12T00:19:38.275Z,19.07
2022-11-12T00:21:59.545Z,19.07
2022-11-12T00:24:21.047Z,21.67
2022-11-12T00:26:42.245Z,20.20
2022-11-12T00:29:03.720Z,18.17
2022-11-12T00:31:26.413Z,18.87
2022-11-12T00:33:47.791Z,17.87
2022-11-12T00:36:09.096Z,20.03
2022-11-12T00:38:31.629Z,19.70
2022-11-12T00:40:53.059Z,18.37
2022-11-12T00:43:14.117Z,19.00
2022-11-12T00:45:35.756Z,18.33
2022-11-12T00:47:58.475Z,20.07
2022-11-12T00:50:19.657Z,19.27
2022-11-12T00:52:40.989Z,19.23
2022-11-12T00:55:02.711Z,20.20
2022-11-12T00:57:23.954Z,19.43
2022-11-12T00:59:45.147Z,17.73
2022-11-12T01:02:06.740Z,18.33
2022-11-12T01:04:28.936Z,19.10
2022-11-12T01:06:50.146Z,20.43
2022-11-12T01:09:11.235Z,18.33
2022-11-12T01:11:33.111Z,21.67
2022-11-12T01:13:55.321Z,17.93
2022-11-12T01:16:19.785Z,18.43
2022-11-12T01:18:41.243Z,19.10
2022-11-12T01:21:04.587Z,25.30
2022-11-12T01:23:25.784Z,33.43
2022-11-12T01:25:47.191Z,33.37
2022-11-12T01:28:08.180Z,41.10
2022-11-12T01:30:29.419Z,102.83
2022-11-12T01:32:50.869Z,138.53
2022-11-12T01:35:12.152Z,62.70
2022-11-12T01:37:34.562Z,30.73
2022-11-12T01:39:56.000Z,37.80
2022-11-12T01:42:17.246Z,80.57
2022-11-12T01:44:39.697Z,65.67
2022-11-12T01:47:03.707Z,46.17
2022-11-12T01:49:27.192Z,44.33
2022-11-12T01:51:50.347Z,78.57
2022-11-12T01:54:14.437Z,55.10
2022-11-12T01:56:35.423Z,66.43
2022-11-12T01:59:00.436Z,83.73
2022-11-12T02:01:22.032Z,38.20
2022-11-12T02:03:43.539Z,41.23
2022-11-12T02:06:07.170Z,37.60
2022-11-12T02:08:29.066Z,36.40
2022-11-12T02:10:52.511Z,37.07
2022-11-12T02:13:31.563Z,48.30
2022-11-12T02:15:53.107Z,54.60
2022-11-12T02:18:14.143Z,29.63
2022-11-12T02:20:35.652Z,66.30
2022-11-12T02:22:58.214Z,83.60
2022-11-12T02:25:20.717Z,98.80
2022-11-12T02:27:42.035Z,56.03
2022-11-12T02:30:03.182Z,104.53
2022-11-12T02:32:24.470Z,46.70
2022-11-12T02:34:47.525Z,31.23
2022-11-12T02:37:08.905Z,44.03
2022-11-12T02:39:31.482Z,45.53
2022-11-12T02:41:52.874Z,39.00
2022-11-12T02:44:14.066Z,46.83
2022-11-12T02:46:35.397Z,28.43
2022-11-12T02:48:56.618Z,37.50
2022-11-12T02:51:17.980Z,35.67
2022-11-12T02:53:38.893Z,36.63
2022-11-12T02:56:01.811Z,45.73
2022-11-12T02:58:23.647Z,22.80
2022-11-12T03:00:44.930Z,15.07
2022-11-12T03:03:06.260Z,20.53
2022-11-12T03:05:28.143Z,21.27
2022-11-12T03:07:49.316Z,60.07
2022-11-12T03:10:11.088Z,47.17
2022-11-12T03:12:34.025Z,32.87
2022-11-12T03:14:55.188Z,54.50
2022-11-12T03:17:16.662Z,17.60
2022-11-12T03:19:38.126Z,24.03
2022-11-12T03:21:59.095Z,42.47
2022-11-12T03:24:20.386Z,34.93
2022-11-12T03:26:41.662Z,22.33
2022-11-12T03:29:04.653Z,17.30
2022-11-12T03:31:26.161Z,20.90
2022-11-12T03:33:47.780Z,20.10
2022-11-12T03:36:09.106Z,24.27
2022-11-12T03:38:30.631Z,25.53
2022-11-12T03:40:52.094Z,21.00
2022-11-12T03:43:13.248Z,20.83
2022-11-12T03:45:35.797Z,20.80
2022-11-12T03:47:57.739Z,29.47
2022-11-12T03:50:19.812Z,20.40
2022-11-12T03:52:44.790Z,29.33
2022-11-12T03:55:06.537Z,29.67
2022-11-12T03:57:27.683Z,30.47
2022-11-12T03:59:49.067Z,19.10
2022-11-12T04:02:14.511Z,22.33
2022-11-12T04:04:49.657Z,18.13
2022-11-12T04:07:28.364Z,15.57
2022-11-12T04:09:49.685Z,24.20
2022-11-12T04:12:24.860Z,18.57
2022-11-12T04:14:46.434Z,30.23
2022-11-12T04:17:25.084Z,37.97
2022-11-12T04:20:05.553Z,35.77
2022-11-12T04:22:26.726Z,49.30
2022-11-12T04:25:04.775Z,28.33
2022-11-12T04:27:27.253Z,49.97
2022-11-12T04:30:06.404Z,38.27
2022-11-12T04:32:28.205Z,36.83
2022-11-12T04:34:51.331Z,25.07
2022-11-12T04:37:12.751Z,34.17
2022-11-12T04:39:33.971Z,30.63
2022-11-12T04:42:12.726Z,14.70
2022-11-12T04:44:51.533Z,39.03
2022-11-12T04:47:12.994Z,33.23
2022-11-12T04:49:34.408Z,37.93
2022-11-12T04:52:06.734Z,23.90
2022-11-12T04:54:28.127Z,14.20
2022-11-12T04:56:49.181Z,30.83
2022-11-12T04:59:10.516Z,44.33
2022-11-12T05:01:32.164Z,24.43
2022-11-12T05:03:53.448Z,62.00
2022-11-12T05:06:28.751Z,35.03
2022-11-12T05:08:51.462Z,34.13
2022-11-12T05:11:13.151Z,45.70
2022-11-12T05:13:34.171Z,42.37
2022-11-12T05:15:55.761Z,55.77
2022-11-12T05:18:17.192Z,44.53
2022-11-12T05:20:38.578Z,35.17
2022-11-12T05:23:06.828Z,49.90
2022-11-12T05:25:29.996Z,18.43
2022-11-12T05:27:51.504Z,66.73
2022-11-12T05:30:13.330Z,23.37
2022-11-12T05:32:34.919Z,36.23
2022-11-12T05:34:56.301Z,48.37
2022-11-12T05:37:17.955Z,31.93
2022-11-12T05:39:39.137Z,23.03
2022-11-12T05:42:17.079Z,22.93
2022-11-12T05:44:38.307Z,19.63
2022-11-12T05:46:59.387Z,31.50
2022-11-12T05:49:21.058Z,42.93
2022-11-12T05:51:42.584Z,19.50
2022-11-12T05:54:03.935Z,15.90
2022-11-12T05:56:25.147Z,18.70
2022-11-12T05:58:47.961Z,47.80
2022-11-12T06:01:09.046Z,36.03
2022-11-12T06:03:30.760Z,28.43
2022-11-12T06:05:53.047Z,65.10
2022-11-12T06:08:14.203Z,60.80
2022-11-12T06:10:36.016Z,49.40
2022-11-12T06:12:57.683Z,81.77
2022-11-12T06:15:21.203Z,66.00
2022-11-12T06:17:42.905Z,73.30
2022-11-12T06:20:04.138Z,71.77
2022-11-12T06:22:25.018Z,23.03
2022-11-12T06:24:46.622Z,20.97
2022-11-12T06:27:07.738Z,29.53
2022-11-12T06:29:30.111Z,35.90
2022-11-12T06:31:52.840Z,21.13
2022-11-12T06:34:13.761Z,47.87
2022-11-12T06:36:35.303Z,23.23
2022-11-12T06:38:56.741Z,35.33
2022-11-12T06:41:18.127Z,33.33
2022-11-12T06:43:40.061Z,46.77
2022-11-12T06:46:02.323Z,28.07
2022-11-12T06:48:25.125Z,29.30
2022-11-12T06:50:46.426Z,28.57
2022-11-12T06:53:07.733Z,22.40
2022-11-12T06:55:28.804Z,30.53
2022-11-12T06:57:52.683Z,40.37
2022-11-12T07:00:14.099Z,68.53
2022-11-12T07:02:36.684Z,39.00
2022-11-12T07:04:59.360Z,19.87
2022-11-12T07:07:20.737Z,29.07
2022-11-12T07:09:42.283Z,29.57
2022-11-12T07:12:03.423Z,18.77
2022-11-12T07:14:24.869Z,16.93
2022-11-12T07:16:46.183Z,24.80
2022-11-12T07:19:07.842Z,19.70
2022-11-12T07:21:30.186Z,19.30
2022-11-12T07:23:51.689Z,31.33
2022-11-12T07:26:14.016Z,17.43
2022-11-12T07:28:35.598Z,36.93
2022-11-12T07:30:57.932Z,15.00
2022-11-12T07:33:19.152Z,24.17
2022-11-12T07:35:40.485Z,15.00
2022-11-12T07:38:03.343Z,8.97
2022-11-12T07:40:24.842Z,9.47
2022-11-12T07:42:46.136Z,20.17
2022-11-12T07:45:08.111Z,10.60
2022-11-12T07:47:29.387Z,10.97
2022-11-12T07:49:53.851Z,9.03
2022-11-12T07:52:14.948Z,25.37
2022-11-12T07:54:37.899Z,9.97
2022-11-12T07:56:59.106Z,9.97
2022-11-12T07:59:20.254Z,12.97
2022-11-12T08:01:42.412Z,9.80
2022-11-12T08:04:04.890Z,12.67
2022-11-12T08:06:26.668Z,23.13
2022-11-12T08:08:48.011Z,9.40
2022-11-12T08:11:10.718Z,9.93
2022-11-12T08:13:32.450Z,12.77
2022-11-12T08:15:53.760Z,13.13
2022-11-12T08:18:15.326Z,10.33
2022-11-12T08:20:36.360Z,8.93
2022-11-12T08:23:00.703Z,15.47
2022-11-12T08:25:21.734Z,8.03
2022-11-12T08:27:44.191Z,9.67
2022-11-12T08:30:05.939Z,9.50
2022-11-12T08:32:27.449Z,11.50
2022-11-12T08:34:48.419Z,8.53
2022-11-12T08:37:09.816Z,10.47
2022-11-12T08:39:31.525Z,13.83
2022-11-12T08:41:53.188Z,25.13
2022-11-12T08:44:15.917Z,20.53
2022-11-12T08:46:37.168Z,10.50
2022-11-12T08:48:58.697Z,11.90
2022-11-12T08:51:20.185Z,10.27
2022-11-12T08:53:41.593Z,9.20
2022-11-12T08:56:02.961Z,9.23
2022-11-12T08:58:25.153Z,8.27
2022-11-12T09:00:47.933Z,8.00
2022-11-12T09:03:09.670Z,9.07
2022-11-12T09:05:30.958Z,7.43
2022-11-12T09:07:57.583Z,7.80
2022-11-12T09:10:18.994Z,7.87
2022-11-12T09:12:40.296Z,7.57
2022-11-12T09:15:30.741Z,8.20
2022-11-12T09:17:43.976Z,9.20
2022-11-12T09:20:05.600Z,8.10
2022-11-12T09:22:26.856Z,8.73
2022-11-12T09:24:48.228Z,10.30
2022-11-12T09:27:09.362Z,9.47
2022-11-12T09:29:30.938Z,8.43
2022-11-12T09:31:52.213Z,6.83
2022-11-12T09:34:15.125Z,7.60
2022-11-12T09:36:39.825Z,7.87
2022-11-12T09:39:01.520Z,7.30
2022-11-12T09:41:27.679Z,8.40
2022-11-12T09:43:51.183Z,8.67
2022-11-12T09:46:27.970Z,9.07
2022-11-12T09:48:54.014Z,9.73
2022-11-12T09:51:18.055Z,8.67
2022-11-12T09:53:44.289Z,8.37
2022-11-12T09:56:07.463Z,9.10
2022-11-12T09:58:28.805Z,8.37
2022-11-12T10:00:54.737Z,8.70
2022-11-12T10:03:21.459Z,9.10
2022-11-12T10:05:48.304Z,8.37
2022-11-12T10:08:26.829Z,8.37
2022-11-12T10:10:49.183Z,8.37
2022-11-12T10:13:16.992Z,8.87
2022-11-12T10:16:05.797Z,8.37
2022-11-12T10:18:32.887Z,8.10
2022-11-12T10:20:55.941Z,8.20
2022-11-12T10:23:19.432Z,8.03
2022-11-12T10:25:43.684Z,8.47
2022-11-12T10:28:10.121Z,8.20
2022-11-12T10:30:31.369Z,8.13
2022-11-12T10:32:53.365Z,8.53
2022-11-12T10:35:17.025Z,7.63
2022-11-12T10:37:40.781Z,8.60
2022-11-12T10:40:21.795Z,8.03
2022-11-12T10:42:58.465Z,8.13
2022-11-12T10:45:21.091Z,7.87
2022-11-12T10:47:43.723Z,7.27
2022-11-12T10:50:06.918Z,7.33
2022-11-12T10:52:28.372Z,9.00
2022-11-12T10:54:54.869Z,8.90
2022-11-12T10:57:24.049Z,9.10
2022-11-12T10:59:46.821Z,8.37
2022-11-12T11:02:17.519Z,9.60
2022-11-12T11:04:39.190Z,8.63
2022-11-12T11:07:03.804Z,8.43
2022-11-12T11:09:26.727Z,8.50
2022-11-12T11:11:51.903Z,9.57
2022-11-12T11:14:34.259Z,9.50
2022-11-12T11:16:58.913Z,10.73
2022-11-12T11:19:20.530Z,9.03
2022-11-12T11:21:58.527Z,9.30
2022-11-12T11:24:23.464Z,8.60
2022-11-12T11:27:00.794Z,8.60
2022-11-12T11:29:31.723Z,8.57
2022-11-12T11:31:54.775Z,8.93
2022-11-12T11:34:26.393Z,9.40
2022-11-12T11:36:52.922Z,8.87
2022-11-12T11:39:19.283Z,9.43
2022-11-12T11:41:47.922Z,9.27
2022-11-12T11:44:15.129Z,8.50
2022-11-12T11:46:46.579Z,8.90
2022-11-12T11:49:20.110Z,9.40
2022-11-12T11:51:52.586Z,8.83
2022-11-12T11:54:24.515Z,8.87
2022-11-12T11:56:47.094Z,9.00
2022-11-12T11:59:20.796Z,9.00
2022-11-12T12:01:52.625Z,8.87
2022-11-12T12:04:31.697Z,8.43
2022-11-12T12:07:02.381Z,8.83
2022-11-12T12:09:30.807Z,9.20
2022-11-12T12:11:59.801Z,9.37
2022-11-12T12:14:34.065Z,8.40
2022-11-12T12:17:03.831Z,8.47
2022-11-12T12:19:37.433Z,8.23
2022-11-12T12:22:11.108Z,8.27
2022-11-12T12:24:41.550Z,8.80
2022-11-12T12:27:11.050Z,8.87
2022-11-12T12:29:34.816Z,9.40
2022-11-12T12:32:01.430Z,9.00
2022-11-12T12:34:29.117Z,9.50
2022-11-12T12:36:51.834Z,11.07
2022-11-12T12:39:15.941Z,12.87
2022-11-12T12:41:40.630Z,10.67
2022-11-12T12:47:00.837Z,10.03
2022-11-12T12:49:57.312Z,9.83
2022-11-12T12:55:37.273Z,10.40
2022-11-12T13:01:04.061Z,10.17
2022-11-12T13:15:51.611Z,13.97
2022-11-12T13:36:26.461Z,10.60
2022-11-12T13:38:48.072Z,10.83
2022-11-12T13:41:12.323Z,11.63
2022-11-12T13:43:33.683Z,11.00
2022-11-12T13:45:56.267Z,11.50
2022-11-12T13:48:21.299Z,11.00
2022-11-12T13:50:42.720Z,11.40
2022-11-12T13:53:07.820Z,10.53
2022-11-12T13:55:29.199Z,10.93
2022-11-12T13:57:51.296Z,9.90
2022-11-12T14:00:26.440Z,10.50
2022-11-12T14:02:50.071Z,13.97
2022-11-12T14:05:15.509Z,11.00
2022-11-12T14:07:41.538Z,11.85
2022-11-12T14:10:06.843Z,11.20
2022-11-12T14:12:34.611Z,11.67
2022-11-12T14:15:04.510Z,11.43
2022-11-12T14:17:29.814Z,11.53
2022-11-12T14:20:02.273Z,10.77
2022-11-12T14:22:24.735Z,10.40
2022-11-12T14:24:48.130Z,10.37
2022-11-12T14:27:23.813Z,11.53
2022-11-12T14:29:45.008Z,11.43
2022-11-12T14:32:09.716Z,11.27
2022-11-12T14:34:33.089Z,10.80
2022-11-12T14:36:56.090Z,11.87
2022-11-12T14:39:17.279Z,11.20
2022-11-12T14:41:41.382Z,13.30
2022-11-12T14:44:13.260Z,11.33
2022-11-12T14:46:39.378Z,10.33
2022-11-12T14:49:02.091Z,10.63
2022-11-12T14:51:24.293Z,10.97
2022-11-12T14:53:47.050Z,11.50
2022-11-12T14:56:09.592Z,11.60
2022-11-12T14:58:31.164Z,11.43
2022-11-12T15:00:54.738Z,10.67
2022-11-12T15:03:18.891Z,11.63
2022-11-12T15:05:53.673Z,10.40
2022-11-12T15:08:28.375Z,13.30
2022-11-12T15:10:49.751Z,10.50
2022-11-12T15:13:11.941Z,11.20
2022-11-12T15:15:34.209Z,11.93
2022-11-12T15:18:01.767Z,10.93
2022-11-12T15:20:22.893Z,11.83
2022-11-12T15:22:50.028Z,12.00
2022-11-12T15:25:12.209Z,15.77
2022-11-12T15:27:38.375Z,13.57
2022-11-12T15:30:09.207Z,13.00
2022-11-12T15:32:33.392Z,34.43
2022-11-12T15:34:56.721Z,11.40
2022-11-12T15:37:23.450Z,11.40
2022-11-12T15:39:45.927Z,12.80
2022-11-12T15:42:13.866Z,12.57
2022-11-12T15:44:36.273Z,11.03
2022-11-12T15:46:58.950Z,12.27
2022-11-12T15:49:20.062Z,12.43
2022-11-12T15:51:42.669Z,12.10
2022-11-12T15:54:04.841Z,12.77
2022-11-12T15:56:26.380Z,12.83
2022-11-12T15:58:47.620Z,12.93
2022-11-12T16:01:08.824Z,12.60
2022-11-12T16:03:31.364Z,13.40
2022-11-12T16:05:52.406Z,13.90
2022-11-12T16:08:15.272Z,14.67
2022-11-12T16:10:37.219Z,18.50
2022-11-12T16:12:59.195Z,14.90
2022-11-12T16:15:22.415Z,15.33
2022-11-12T16:17:43.700Z,17.50
2022-11-12T16:20:07.167Z,16.47
2022-11-12T16:22:28.558Z,22.70
2022-11-12T16:24:51.648Z,20.37
2022-11-12T16:27:13.880Z,19.37
2022-11-12T16:29:35.206Z,16.67
2022-11-12T16:31:56.191Z,17.73
2022-11-12T16:34:17.678Z,16.57
2022-11-12T16:36:38.866Z,15.53
2022-11-12T16:38:59.852Z,15.67
2022-11-12T16:41:22.662Z,16.90
2022-11-12T16:43:43.879Z,16.27
2022-11-12T16:46:08.058Z,14.60
2022-11-12T16:48:29.524Z,14.97
2022-11-12T16:50:50.586Z,14.50
2022-11-12T16:53:11.905Z,13.20
2022-11-12T16:55:33.264Z,12.40
2022-11-12T16:57:56.290Z,12.23
2022-11-12T17:00:18.299Z,11.90
2022-11-12T17:02:44.530Z,12.13
2022-11-12T17:05:09.374Z,13.00
2022-11-12T17:07:30.630Z,14.23
2022-11-12T17:09:52.342Z,15.60
2022-11-12T17:12:13.850Z,13.93
2022-11-12T17:14:36.547Z,15.17
2022-11-12T17:16:57.796Z,25.43
2022-11-12T17:19:19.625Z,27.10
2022-11-12T17:21:40.988Z,19.03
2022-11-12T17:24:02.420Z,29.63
2022-11-12T17:26:23.663Z,26.10
2022-11-12T17:28:44.742Z,26.83
2022-11-12T17:31:08.860Z,22.93
2022-11-12T17:33:30.174Z,23.07
2022-11-12T17:35:52.080Z,19.57
2022-11-12T17:38:13.260Z,18.03
2022-11-12T17:40:34.403Z,19.40
2022-11-12T17:42:55.688Z,20.93
2022-11-12T17:45:16.975Z,21.87
2022-11-12T17:47:40.756Z,22.90
2022-11-12T17:50:02.141Z,20.20
2022-11-12T17:52:23.539Z,20.67
2022-11-12T17:54:44.804Z,21.20
2022-11-12T17:57:06.044Z,20.73
2022-11-12T17:59:27.675Z,19.60
2022-11-12T18:10:42.745Z,16.73
2022-11-12T18:13:04.095Z,16.17
2022-11-12T18:15:25.446Z,16.23
2022-11-12T18:17:46.916Z,14.53
2022-11-12T18:20:08.721Z,13.97
2022-11-12T18:22:29.772Z,14.83
2022-11-12T18:24:52.761Z,15.87
2022-11-12T18:27:15.415Z,14.73
2022-11-12T18:29:37.027Z,14.87
2022-11-12T18:31:58.111Z,14.33
2022-11-12T18:34:19.299Z,12.73
2022-11-12T18:36:40.791Z,14.80
2022-11-12T18:39:04.715Z,14.13
2022-11-12T18:41:28.419Z,17.40
2022-11-12T18:43:50.970Z,15.27
2022-11-12T18:46:12.460Z,15.17
2022-11-12T18:48:34.440Z,17.67
2022-11-12T18:50:58.344Z,16.20
2022-11-12T18:53:19.601Z,17.20
2022-11-12T18:55:40.850Z,16.90
2022-11-12T18:58:02.106Z,16.87
2022-11-12T19:00:25.844Z,17.70
2022-11-12T19:02:47.888Z,17.80
2022-11-12T19:05:09.443Z,16.30
2022-11-12T19:07:30.525Z,15.57
2022-11-12T19:09:51.623Z,16.57
2022-11-12T19:12:12.904Z,16.43
2022-11-12T19:14:34.262Z,15.80
2022-11-12T19:16:56.679Z,15.47
2022-11-12T19:19:18.280Z,16.07
2022-11-12T19:21:39.597Z,16.73
2022-11-12T19:24:01.096Z,17.20
2022-11-12T19:26:22.997Z,15.77
2022-11-12T19:28:44.692Z,16.90
2022-11-12T19:31:07.212Z,15.80
2022-11-12T19:33:29.703Z,19.13
2022-11-12T19:35:50.727Z,22.23
2022-11-12T19:38:12.122Z,18.93
2022-11-12T19:40:33.192Z,21.53
2022-11-12T19:42:54.210Z,19.67
2022-11-12T19:45:15.583Z,20.10
2022-11-12T19:47:37.895Z,28.60
2022-11-12T19:50:00.378Z,25.20
2022-11-12T19:52:22.045Z,23.73
2022-11-12T19:54:43.255Z,21.50
2022-11-12T19:57:04.303Z,18.13
2022-11-12T19:59:25.848Z,16.83
2022-11-12T20:01:47.639Z,17.77
2022-11-12T20:04:09.103Z,17.27
2022-11-12T20:06:31.730Z,18.63
2022-11-12T20:08:53.213Z,17.97
2022-11-12T20:11:16.076Z,18.33
2022-11-12T20:13:37.016Z,16.47
2022-11-12T20:15:58.246Z,15.43
2022-11-12T20:18:19.507Z,13.80
2022-11-12T20:20:40.608Z,14.50
2022-11-12T20:23:03.181Z,15.57
2022-11-12T20:25:24.160Z,14.20
2022-11-12T20:27:45.591Z,15.97
2022-11-12T20:30:07.659Z,16.73
2022-11-12T20:32:28.720Z,17.70
2022-11-12T20:34:50.067Z,16.43
2022-11-12T20:37:11.724Z,17.23
2022-11-12T20:39:34.217Z,16.23
2022-11-12T20:41:55.401Z,18.30
2022-11-12T20:44:16.683Z,18.10
2022-11-12T20:46:38.344Z,20.97
2022-11-12T20:48:59.710Z,21.23
2022-11-12T20:51:24.113Z,20.27
2022-11-12T20:53:47.191Z,21.70
2022-11-12T20:56:10.640Z,21.77
2022-11-12T20:58:32.308Z,20.27
2022-11-12T21:00:53.733Z,19.43
2022-11-12T21:03:14.773Z,19.97
2022-11-12T21:05:36.114Z,19.07
2022-11-12T21:07:57.543Z,17.63
2022-11-12T21:10:19.031Z,17.80
2022-11-12T21:12:41.802Z,19.27
2022-11-12T21:15:03.178Z,21.37
2022-11-12T21:17:24.215Z,23.47
2022-11-12T21:19:45.433Z,23.70
2022-11-12T21:22:06.792Z,23.87
2022-11-12T21:24:28.103Z,22.57
2022-11-12T21:26:49.410Z,25.77
2022-11-12T21:29:14.437Z,24.50
2022-11-12T21:31:37.875Z,23.03
2022-11-12T21:34:00.309Z,22.70
2022-11-12T21:36:21.781Z,24.30
2022-11-12T21:38:43.522Z,24.07
2022-11-12T21:41:05.756Z,25.27
2022-11-12T21:43:27.244Z,22.27
2022-11-12T21:45:50.038Z,22.13
2022-11-12T21:48:12.622Z,23.20
2022-11-12T21:50:34.054Z,22.37
2022-11-12T21:52:56.877Z,21.50
2022-11-12T21:55:18.196Z,22.40
2022-11-12T21:57:39.536Z,22.57
2022-11-12T22:00:26.625Z,23.27
2022-11-12T22:02:43.782Z,19.73
2022-11-12T22:05:04.717Z,15.93
2022-11-12T22:07:26.108Z,17.50
2022-11-12T22:09:50.281Z,17.53
2022-11-12T22:12:13.968Z,25.70
2022-11-12T22:14:35.579Z,34.43
2022-11-12T22:16:57.279Z,31.80
2022-11-12T22:19:21.726Z,32.87
2022-11-12T22:21:43.891Z,29.87
2022-11-12T22:24:05.670Z,53.77
2022-11-12T22:29:51.815Z,31.20
2022-11-12T22:32:12.854Z,43.33
2022-11-12T22:34:35.530Z,64.03
2022-11-12T22:36:56.678Z,41.30
2022-11-12T22:39:18.486Z,47.80
2022-11-12T22:41:39.976Z,38.97
2022-11-12T22:44:02.806Z,52.43
2022-11-12T22:46:24.611Z,101.77
2022-11-12T22:48:45.764Z,106.57
2022-11-12T22:51:09.375Z,59.93
2022-11-12T22:53:30.651Z,86.13
2022-11-12T22:55:51.668Z,69.50
2022-11-12T22:58:13.724Z,90.87
2022-11-12T23:00:34.599Z,100.50
2022-11-12T23:02:55.975Z,103.70
2022-11-12T23:05:17.428Z,63.13
2022-11-12T23:07:40.316Z,113.83
2022-11-12T23:10:01.570Z,95.10
2022-11-12T23:12:22.823Z,72.77
2022-11-12T23:14:43.973Z,41.43
2022-11-12T23:17:05.523Z,32.33
2022-11-12T23:19:27.244Z,51.50
2022-11-12T23:21:49.021Z,40.93
2022-11-12T23:24:12.272Z,46.57
2022-11-12T23:26:34.030Z,43.70
2022-11-12T23:28:55.154Z,45.37
2022-11-12T23:31:18.189Z,32.07
2022-11-12T23:33:39.196Z,31.47
2022-11-12T23:36:07.054Z,41.40
2022-11-12T23:38:28.579Z,36.30
2022-11-12T23:40:55.627Z,66.87
2022-11-12T23:43:17.010Z,39.90
2022-11-12T23:45:38.792Z,52.40
2022-11-12T23:47:59.973Z,36.93
2022-11-12T23:50:21.294Z,37.80
2022-11-12T23:52:42.634Z,35.00
2022-11-12T23:55:04.369Z,40.67
2022-11-12T23:57:27.170Z,35.30
2022-11-12T23:59:48.440Z,39.83
